Albuquerque, NM (87107)

12:07 PM MST on February 22, 2017 (GMT -0700)
MD9886 | | Change Station
Active Advisory: Fire Weather Warning

Elev 4988 ft 35.14 °N, 106.63 °W | Updated 20 minutes ago

Mostly Cloudy
Mostly Cloudy
63.0 °F
Feels Like 63.0 °F
N
0.0
Wind Variable Wind from North
Gusts 6.0 mph

Today
High -- | Low -- °F
--% Chance of Precip.
Yesterday
High -- | Low -- °F
Precip. -- in
Pressure 29.94 in
Visibility 10.0 miles
Clouds Few 6000 ft
Few 11000 ft
Mostly Cloudy 18000 ft
Dew Point 38 °F
Humidity 39%
Rainfall 0.00 in
Snow Depth Not available.
6:44 AM 5:56 PM
Waning Crescent, 15% visible
METAR KABQ 221852Z 20004KT 10SM FEW060 FEW110 BKN180 15/01 A3007 RMK AO2 SLP138 T01500011
Pressure 29.94 in
Visibility 10.0 miles
Clouds Few 6000 ft
Few 11000 ft
Mostly Cloudy 18000 ft
Dew Point 38 °F
Humidity 39%
Rainfall 0.00 in
Snow Depth Not available.
6:44 AM 5:56 PM
Waning Crescent, 15% visible
METAR KABQ 221852Z 20004KT 10SM FEW060 FEW110 BKN180 15/01 A3007 RMK AO2 SLP138 T01500011

Get Your Daily Forecast Email!

Thanks for signing up!

Be on the lookout for a verification email in your inbox.

You'll start receiving the daily forecast at 8 AM.

×

10-Day Weather Forecast

Almanac

Astronomy

Feb. 22, 2017 Rise Set
Actual Time
Civil Twilight
Nautical Twilight
Astronomical Twilight
Moon
Length of Visible Light
Length of Day
Tomorrow will be .
, % of the Moon is Illuminated

Today's Extremes

State Highs State Lows

Community

WunderPhotos

Upload Photos

1,962,540 photos uploaded!

WunderBlog® & News

Nearby

Air Quality

  Air Quality AQ Index Pollutant
Not available.

Snow Depth

Station Depth Elevation

Earthquake Activity

City Distance Mag. Time & Date
Minimum magnitude displayed is 2.5.

Coastal Water Temperatures

Place Temperature

Stations

Nearby Weather Stations

Station Location Temp. Windchill Dew Point Humidity Wind Precip. Elev Updated Type
                   

Watches & Warnings

Fire Weather Warning
Issued: 4:50 AM MST Feb. 22, 2017 – National Weather Service

... Red flag warning remains in effect from noon to 7 PM MST
Thursday...

* area and timing... middle Rio Grande Valley and Sandia...
Manzano and Gallinas Mountains below significant snowpack
Thursday afternoon to early evening.

* 20 foot winds... west 20 to 40 mph with gusts of 50 to 60 mph
favoring areas along and east of the central mountains.

* Relative humidity... minimum values between 8 to 16 percent.
Lowest values across Socorro County.

* Impacts... any fires that develop will likely spread rapidly.
Outdoor burning is not recommended.

Precautionary/preparedness actions...

Please advise the appropriate officials or fire crews in the
field of this red flag warning.



40